M/V Alton St. Amant — WDE7604 — position and weather

sailwx.info

Track history (hours):
 
Tides and Currents Weather Stations Pressure Air Temp Water Temp Dewpoint Dewpoint Depression Visibility Wind Speed Wind Dir Waves Ship Positions

M/V Alton St. Amant

Owner: The Barge Investment Group Five, L.L.C., Harahan, LA. More information available from US FCC via Universal Licensing System and Coast Guard Vessel Documentation Center.

Last reported at 2017-May-26 08:26 UTC. Time now 2017-May-27 21:10 UTC.
Position N 29°58' W 093°52'.

Length 25 m; draft 2.7 m.

Type: Towing. MMSI: 367395270.

Date/timePositionNaut miles runAvg speedWind from/ knotsBaromVisibWave heightAir tempDewpointWater temp
2017-May-26 08:26N 29°58' W 093°52'0 0.0
2017-May-26 04:19N 29°58' W 093°52'60 2.0
2017-May-24 23:00N 29°29' W 094°52'4 7.3
2017-May-24 22:30N 29°32' W 094°54'4 7.1
2017-May-24 22:00N 29°35' W 094°56'4 7.1
2017-May-24 21:30N 29°38' W 094°58'4 7.1
2017-May-24 21:00N 29°42' W 094°59'3 6.2
2017-May-24 20:28N 29°44' W 095°02'3 6.7
2017-May-24 20:00N 29°46' W 095°05'1 1.3
2017-May-24 18:57N 29°47' W 095°05'0 0.1
2017-May-24 18:30N 29°47' W 095°05'0 0.2
2017-May-24 18:00N 29°47' W 095°05'0 0.2
2017-May-24 17:30N 29°47' W 095°05'0 0.0
2017-May-24 16:40N 29°47' W 095°05'0 0.9
2017-May-24 16:29N 29°47' W 095°04'0 0.6
2017-May-24 15:57N 29°47' W 095°05'0 0.3
2017-May-24 15:22N 29°47' W 095°05'0 0.0
2017-May-24 03:19N 29°47' W 095°05'0 0.1
2017-May-24 02:59N 29°47' W 095°05'0 0.0
2017-May-24 02:10N 29°47' W 095°05'0 0.1
2017-May-24 01:59N 29°47' W 095°05'0 0.0
2017-May-23 21:21N 29°47' W 095°05'0 0.4
2017-May-23 20:42N 29°47' W 095°04'2 3.3
2017-May-23 20:13N 29°46' W 095°05'1 0.1
2017-May-23 02:43N 29°46' W 095°06'1 3.4
2017-May-23 02:30N 29°45' W 095°06'1 2.9
2017-May-23 01:59N 29°47' W 095°05'1 0.1
2017-May-22 16:18N 29°47' W 095°05'0 0.0
2017-May-21 17:20N 29°47' W 095°05'0 0.0
2017-May-21 13:38N 29°47' W 095°05'0 0.7
2017-May-21 13:15N 29°47' W 095°04'2 3.7
2017-May-21 12:46N 29°46' W 095°05'2 5.5
2017-May-21 12:26N 29°44' W 095°07'2 0.7
2017-May-21 10:13N 29°44' W 095°08'1 5.3
2017-May-21 09:59N 29°44' W 095°07'1 0.1
2017-May-20 19:33N 29°45' W 095°06'0 0.1
2017-May-20 19:23N 29°45' W 095°06'1 1.5
2017-May-20 18:56N 29°45' W 095°06'2 3.4
2017-May-20 18:24N 29°47' W 095°05'1 0.5
2017-May-20 17:18N 29°47' W 095°05'0 0.0
2017-May-20 08:51N 29°47' W 095°05'0 0.1
2017-May-20 07:07N 29°47' W 095°05'0 0.1
2017-May-20 07:00N 29°47' W 095°05'4 0.2
2017-May-19 14:00N 29°44' W 095°03'3 5.8
2017-May-19 13:30N 29°42' W 095°00'3 6.6
2017-May-19 13:00N 29°39' W 094°58'3 6.9
2017-May-19 12:30N 29°36' W 094°57'4 7.0
2017-May-19 12:01N 29°33' W 094°55'3 6.7
2017-May-19 11:31N 29°30' W 094°53'  
Track history (hours):
 
Tides and Currents Weather Stations Pressure Air Temp Water Temp Dewpoint Dewpoint Depression Visibility Wind Speed Wind Dir Waves Ship Positions

M/V Alton St. Amant

Owner: The Barge Investment Group Five, L.L.C., Harahan, LA. More information available from US FCC via Universal Licensing System and Coast Guard Vessel Documentation Center.

Last reported at 2017-May-26 08:26 UTC. Time now 2017-May-27 21:10 UTC.
Position N 29°58' W 093°52'.

Length 25 m; draft 2.7 m.

Type: Towing. MMSI: 367395270.

Date/timePositionNaut miles runAvg speedWind from/ knotsBaromVisibWave heightAir tempDewpointWater temp
2017-May-26 08:26N 29°58' W 093°52'0 0.0
2017-May-26 04:19N 29°58' W 093°52'60 2.0
2017-May-24 23:00N 29°29' W 094°52'4 7.3
2017-May-24 22:30N 29°32' W 094°54'4 7.1
2017-May-24 22:00N 29°35' W 094°56'4 7.1
2017-May-24 21:30N 29°38' W 094°58'4 7.1
2017-May-24 21:00N 29°42' W 094°59'3 6.2
2017-May-24 20:28N 29°44' W 095°02'3 6.7
2017-May-24 20:00N 29°46' W 095°05'1 1.3
2017-May-24 18:57N 29°47' W 095°05'0 0.1
2017-May-24 18:30N 29°47' W 095°05'0 0.2
2017-May-24 18:00N 29°47' W 095°05'0 0.2
2017-May-24 17:30N 29°47' W 095°05'0 0.0
2017-May-24 16:40N 29°47' W 095°05'0 0.9
2017-May-24 16:29N 29°47' W 095°04'0 0.6
2017-May-24 15:57N 29°47' W 095°05'0 0.3
2017-May-24 15:22N 29°47' W 095°05'0 0.0
2017-May-24 03:19N 29°47' W 095°05'0 0.1
2017-May-24 02:59N 29°47' W 095°05'0 0.0
2017-May-24 02:10N 29°47' W 095°05'0 0.1
2017-May-24 01:59N 29°47' W 095°05'0 0.0
2017-May-23 21:21N 29°47' W 095°05'0 0.4
2017-May-23 20:42N 29°47' W 095°04'2 3.3
2017-May-23 20:13N 29°46' W 095°05'1 0.1
2017-May-23 02:43N 29°46' W 095°06'1 3.4
2017-May-23 02:30N 29°45' W 095°06'1 2.9
2017-May-23 01:59N 29°47' W 095°05'1 0.1
2017-May-22 16:18N 29°47' W 095°05'0 0.0
2017-May-21 17:20N 29°47' W 095°05'0 0.0
2017-May-21 13:38N 29°47' W 095°05'0 0.7
2017-May-21 13:15N 29°47' W 095°04'2 3.7
2017-May-21 12:46N 29°46' W 095°05'2 5.5
2017-May-21 12:26N 29°44' W 095°07'2 0.7
2017-May-21 10:13N 29°44' W 095°08'1 5.3
2017-May-21 09:59N 29°44' W 095°07'1 0.1
2017-May-20 19:33N 29°45' W 095°06'0 0.1
2017-May-20 19:23N 29°45' W 095°06'1 1.5
2017-May-20 18:56N 29°45' W 095°06'2 3.4
2017-May-20 18:24N 29°47' W 095°05'1 0.5
2017-May-20 17:18N 29°47' W 095°05'0 0.0
2017-May-20 08:51N 29°47' W 095°05'0 0.1
2017-May-20 07:07N 29°47' W 095°05'0 0.1
2017-May-20 07:00N 29°47' W 095°05'4 0.2
2017-May-19 14:00N 29°44' W 095°03'3 5.8
2017-May-19 13:30N 29°42' W 095°00'3 6.6
2017-May-19 13:00N 29°39' W 094°58'3 6.9
2017-May-19 12:30N 29°36' W 094°57'4 7.0
2017-May-19 12:01N 29°33' W 094°55'3 6.7
2017-May-19 11:31N 29°30' W 094°53'  

Dump ship's entire track history